This is the latest recevied weather packets stored in our database for station/object SP9MLI-1. If no packets are shown the sender has not sent any weather packets the latest 10 day(s).
| Time | Temp. | Humidity | Pressure | Rain* | Wind** | Luminosity | Snow |
|---|---|---|---|---|---|---|---|
| 1777800195 | 27.22° C | 35% | 1016.7 hPa | 0 mm | - | - | - |
| 1777749866 | 11.11° C | 74% | 1017.4 hPa | 0 mm | - | - | - |
| 1777748895 | 12.22° C | 71% | 1017.7 hPa | 0 mm | - | - | - |
| 1777743494 | 17.78° C | 51% | 1018.7 hPa | 0 mm | - | - | - |
| 1777739894 | 19.44° C | 47% | 1019.8 hPa | 0 mm | - | - | - |
| 1777738094 | 20° C | 44% | 1020.1 hPa | 0 mm | - | - | - |
| 1777736293 | 20.56° C | 43% | 1020.8 hPa | 0 mm | - | - | - |
| 1777734494 | 22.22° C | 41% | 1021.1 hPa | 0 mm | - | - | - |
| 1777672395 | 7.78° C | 75% | 1023.5 hPa | 0 mm | - | - | - |
| 1777671497 | 7.78° C | 77% | 1023.8 hPa | 0 mm | - | - | - |
| 1777648093 | 21.67° C | 50% | 1027.9 hPa | 0 mm | - | - | - |
| 1777647194 | 21.67° C | 50% | 1027.9 hPa | 0 mm | - | - | - |
| 1777646296 | 21.67° C | 50% | 1027.9 hPa | 0 mm | - | - | - |
| 1777645393 | 21.67° C | 50% | 1027.9 hPa | 0 mm | - | - | - |
| 1777644558 | 21.67° C | 48% | 1028.2 hPa | 0 mm | - | - | - |
| 1777644493 | 21.67° C | 49% | 1028.2 hPa | 0 mm | - | - | - |
| 1777643594 | 21.67° C | 50% | 1029.6 hPa | 0 mm | - | - | - |
| 1777642697 | 21.67° C | 50% | 1029.6 hPa | 0 mm | - | - | - |
| 1777641794 | 21.67° C | 50% | 1029.6 hPa | 0 mm | - | - | - |
| 1777640895 | 21.67° C | 50% | 1029.6 hPa | 0 mm | - | - | - |
| 1777639093 | 22.78° C | 48% | 1029.6 hPa | 0 mm | - | - | - |
| 1777638195 | 23.33° C | 46% | 1029.9 hPa | 0 mm | - | - | - |
| 1777637295 | 23.33° C | 46% | 1029.9 hPa | 0 mm | - | - | - |
| 1777635514 | 24.44° C | 43% | 1029.9 hPa | 0 mm | - | - | - |
| 1777634833 | 24.44° C | 43% | 1029.9 hPa | 0 mm | - | - | - |
* Rain latest hour (hover to see other rain measurements)
** Current wind speed in m/s (hover to see current wind gust speed)